createdAt,value
2019-06-07T00:00:07.604Z,18.37
2019-06-07T00:02:35.138Z,14.77
2019-06-07T00:05:17.132Z,15.53
2019-06-07T00:07:43.910Z,21.83
2019-06-07T00:10:32.651Z,18.40
2019-06-07T00:12:45.045Z,16.70
2019-06-07T00:15:28.832Z,19.73
2019-06-07T00:17:56.822Z,17.97
2019-06-07T00:20:26.373Z,15.63
2019-06-07T00:22:55.342Z,16.90
2019-06-07T00:25:33.668Z,15.53
2019-06-07T00:28:02.540Z,20.60
2019-06-07T00:30:48.521Z,17.00
2019-06-07T00:33:02.281Z,12.60
2019-06-07T00:35:40.409Z,16.67
2019-06-07T00:38:14.209Z,13.30
2019-06-07T00:40:43.094Z,15.63
2019-06-07T00:43:14.150Z,14.60
2019-06-07T00:45:52.033Z,14.33
2019-06-07T00:48:31.315Z,16.10
2019-06-07T00:50:52.130Z,18.73
2019-06-07T00:53:29.845Z,20.50
2019-06-07T00:56:01.185Z,22.90
2019-06-07T00:58:30.419Z,18.53
2019-06-07T01:01:02.437Z,17.37
2019-06-07T01:03:31.301Z,14.90
2019-06-07T01:06:12.606Z,16.53
2019-06-07T01:08:41.699Z,19.00
2019-06-07T01:11:10.787Z,15.77
2019-06-07T01:13:39.774Z,18.57
2019-06-07T01:16:18.763Z,16.63
2019-06-07T01:18:51.310Z,19.60
2019-06-07T01:21:21.695Z,16.43
2019-06-07T01:24:11.838Z,18.97
2019-06-07T01:27:33.238Z,23.10
2019-06-07T01:30:02.360Z,21.83
2019-06-07T01:32:31.994Z,21.50
2019-06-07T01:35:01.164Z,25.27
2019-06-07T01:37:39.550Z,19.33
2019-06-07T01:40:11.639Z,17.00
2019-06-07T01:42:40.554Z,18.50
2019-06-07T01:45:10.449Z,21.30
2019-06-07T01:47:48.301Z,21.70
2019-06-07T01:50:19.724Z,19.40
2019-06-07T01:52:48.290Z,18.20
2019-06-07T01:55:18.811Z,17.27
2019-06-07T01:57:57.480Z,20.03
2019-06-07T02:00:31.908Z,18.93
2019-06-07T02:02:57.219Z,18.47
2019-06-07T02:05:30.512Z,17.47
2019-06-07T02:08:07.333Z,18.40
2019-06-07T02:10:36.365Z,18.70
2019-06-07T02:13:05.513Z,18.80
2019-06-07T02:15:36.694Z,18.87
2019-06-07T02:18:17.582Z,19.53
2019-06-07T02:20:46.623Z,17.57
2019-06-07T02:23:15.565Z,19.03
2019-06-07T02:25:50.184Z,20.80
2019-06-07T02:28:36.964Z,20.73
2019-06-07T02:30:59.945Z,22.93
2019-06-07T02:33:29.015Z,22.53
2019-06-07T02:35:56.177Z,21.53
2019-06-07T02:38:37.189Z,21.27
2019-06-07T02:41:06.693Z,22.20
2019-06-07T02:43:37.180Z,18.17
2019-06-07T02:46:26.372Z,21.73
2019-06-07T02:48:43.141Z,20.60
2019-06-07T02:51:12.154Z,21.33
2019-06-07T02:53:41.178Z,20.73
2019-06-07T02:56:37.736Z,18.90
2019-06-07T02:58:42.068Z,19.73
2019-06-07T03:01:11.413Z,21.57
2019-06-07T03:03:40.698Z,23.50
2019-06-07T03:06:13.696Z,21.70
2019-06-07T03:08:55.580Z,22.70
2019-06-07T03:11:26.447Z,21.50
2019-06-07T03:13:59.010Z,19.93
2019-06-07T03:19:21.802Z,18.43
2019-06-07T03:21:53.300Z,26.37
2019-06-07T03:24:24.764Z,21.60
2019-06-07T03:29:36.062Z,21.73
2019-06-07T03:32:04.388Z,28.30
2019-06-07T03:34:40.495Z,20.63
2019-06-07T03:37:13.230Z,19.47
2019-06-07T03:39:42.418Z,19.60
2019-06-07T03:42:11.311Z,18.30
2019-06-07T03:44:41.466Z,17.57
2019-06-07T03:47:19.875Z,19.53
2019-06-07T03:49:48.908Z,17.47
2019-06-07T03:52:17.861Z,19.63
2019-06-07T03:54:46.813Z,21.83
2019-06-07T03:57:25.042Z,17.30
2019-06-07T03:59:54.027Z,16.40
2019-06-07T04:02:23.136Z,17.93
2019-06-07T04:04:52.065Z,15.27
2019-06-07T04:07:31.156Z,18.03
2019-06-07T04:10:01.442Z,17.70
2019-06-07T04:12:35.556Z,20.47
2019-06-07T04:15:04.078Z,16.43
2019-06-07T04:18:00.881Z,18.00
2019-06-07T04:20:13.230Z,17.07
2019-06-07T04:22:42.750Z,15.43
2019-06-07T04:25:12.915Z,16.67
2019-06-07T04:27:51.146Z,15.27
2019-06-07T04:30:39.554Z,18.13
2019-06-07T04:33:08.168Z,13.30
2019-06-07T04:35:40.033Z,13.40
2019-06-07T04:38:18.106Z,14.97
2019-06-07T04:40:47.638Z,15.13
2019-06-07T04:43:16.637Z,13.70
2019-06-07T04:45:51.164Z,13.17
2019-06-07T04:48:31.310Z,12.00
2019-06-07T04:51:01.833Z,15.40
2019-06-07T04:53:34.585Z,12.60
2019-06-07T04:56:04.010Z,14.07
2019-06-07T04:58:43.242Z,12.57
2019-06-07T05:01:26.653Z,12.77
2019-06-07T05:03:44.208Z,15.87
2019-06-07T05:06:13.658Z,11.53
2019-06-07T05:08:52.014Z,16.53
2019-06-07T05:11:20.971Z,14.80
2019-06-07T05:13:50.022Z,14.87
2019-06-07T05:16:19.002Z,11.87
2019-06-07T05:18:57.149Z,14.53
2019-06-07T05:21:46.428Z,11.93
2019-06-07T05:24:06.623Z,14.67
2019-06-07T05:26:27.622Z,14.30
2019-06-07T05:29:07.386Z,15.27
2019-06-07T05:31:39.629Z,13.00
2019-06-07T05:34:07.166Z,12.50
2019-06-07T05:36:39.345Z,13.57
2019-06-07T05:39:18.960Z,14.80
2019-06-07T05:41:48.353Z,13.33
2019-06-07T05:44:17.747Z,12.30
2019-06-07T05:46:47.597Z,15.03
2019-06-07T05:49:25.884Z,16.60
2019-06-07T05:51:54.990Z,15.93
2019-06-07T05:54:26.666Z,14.17
2019-06-07T05:56:55.630Z,13.23
2019-06-07T05:59:36.053Z,12.27
2019-06-07T06:02:21.801Z,10.87
2019-06-07T06:04:36.022Z,13.47
2019-06-07T06:07:05.208Z,13.83
2019-06-07T06:09:45.962Z,11.30
2019-06-07T06:12:33.613Z,12.87
2019-06-07T06:14:47.066Z,13.13
2019-06-07T06:17:16.142Z,12.07
2019-06-07T06:19:55.265Z,11.43
2019-06-07T06:22:29.944Z,10.60
2019-06-07T06:25:31.034Z,12.73
2019-06-07T06:28:03.319Z,10.80
2019-06-07T06:30:10.973Z,9.90
2019-06-07T06:32:46.943Z,10.17
2019-06-07T06:35:11.287Z,12.60
2019-06-07T06:37:42.682Z,11.20
2019-06-07T06:40:12.792Z,11.07
2019-06-07T06:42:42.266Z,11.93
2019-06-07T06:45:11.609Z,9.30
2019-06-07T06:47:43.318Z,10.10
2019-06-07T06:50:23.283Z,8.90
2019-06-07T06:52:54.863Z,10.47
2019-06-07T06:55:23.043Z,11.63
2019-06-07T06:57:53.969Z,11.93
2019-06-07T07:00:56.880Z,9.30
2019-06-07T07:05:55.034Z,9.47
2019-06-07T07:08:24.315Z,9.17
2019-06-07T07:11:05.002Z,11.20
2019-06-07T07:13:33.957Z,10.30
2019-06-07T07:16:05.763Z,9.57
2019-06-07T07:18:34.833Z,9.37
2019-06-07T07:21:13.493Z,8.33
2019-06-07T07:24:05.503Z,9.27
2019-06-07T07:26:13.345Z,8.73
2019-06-07T07:28:43.052Z,8.90
2019-06-07T07:31:12.904Z,9.20
2019-06-07T07:34:27.429Z,8.00
2019-06-07T07:36:35.202Z,9.00
2019-06-07T07:38:48.944Z,8.37
2019-06-07T07:41:23.437Z,7.50
2019-06-07T07:44:05.509Z,7.07
2019-06-07T07:46:29.813Z,6.83
2019-06-07T07:48:56.189Z,8.60
2019-06-07T07:51:25.416Z,9.10
2019-06-07T07:54:09.071Z,8.23
2019-06-07T07:56:25.149Z,6.80
2019-06-07T07:59:00.627Z,6.83
2019-06-07T08:01:34.302Z,7.07
2019-06-07T08:04:03.250Z,8.07
2019-06-07T08:06:32.422Z,7.43
2019-06-07T08:09:01.372Z,6.77
2019-06-07T08:11:31.524Z,6.70
2019-06-07T08:14:00.587Z,7.25
2019-06-07T08:16:29.534Z,6.40
2019-06-07T08:19:03.492Z,7.95
2019-06-07T08:21:38.784Z,9.50
2019-06-07T08:24:08.350Z,5.87
2019-06-07T08:26:39.377Z,5.67
2019-06-07T08:29:08.420Z,6.58
2019-06-07T08:31:51.724Z,5.95
2019-06-07T08:34:21.410Z,6.20
2019-06-07T08:36:52.232Z,5.58
2019-06-07T08:39:21.373Z,4.92
2019-06-07T08:42:14.851Z,6.25
2019-06-07T08:44:31.552Z,3.90
2019-06-07T08:47:19.419Z,4.75
2019-06-07T08:49:31.459Z,6.85
2019-06-07T08:52:12.352Z,4.30
2019-06-07T08:54:42.192Z,3.75
2019-06-07T08:57:20.791Z,5.65
2019-06-07T08:59:42.748Z,4.33
2019-06-07T09:02:31.788Z,2.80
2019-06-07T09:05:10.427Z,3.55
2019-06-07T09:07:31.733Z,3.98
2019-06-07T09:10:09.526Z,5.53
2019-06-07T09:12:40.505Z,4.78
2019-06-07T09:15:21.539Z,4.17
2019-06-07T09:18:29.299Z,4.92
2019-06-07T09:20:35.109Z,4.40
2019-06-07T09:22:44.219Z,2.52
2019-06-07T09:25:21.177Z,2.80
2019-06-07T09:27:45.711Z,2.62
2019-06-07T09:30:18.767Z,2.92
2019-06-07T09:32:47.265Z,3.42
2019-06-07T09:35:17.670Z,7.25
2019-06-07T09:38:07.633Z,3.55
2019-06-07T09:40:27.359Z,2.00
2019-06-07T09:43:38.534Z,3.22
2019-06-07T09:45:22.437Z,2.15
2019-06-07T09:47:51.462Z,2.50
2019-06-07T09:50:20.720Z,4.67
2019-06-07T09:53:10.132Z,3.50
2019-06-07T09:55:29.882Z,2.85
2019-06-07T09:58:06.905Z,5.10
2019-06-07T10:00:41.479Z,2.67
2019-06-07T10:03:20.738Z,3.08
2019-06-07T10:05:41.329Z,3.67
2019-06-07T10:08:41.438Z,2.02
2019-06-07T10:10:42.967Z,2.50
2019-06-07T10:13:21.231Z,5.35
2019-06-07T10:15:53.547Z,2.55
2019-06-07T10:18:21.334Z,2.55
2019-06-07T10:20:50.441Z,5.28
2019-06-07T10:23:28.655Z,1.90
2019-06-07T10:25:57.557Z,3.95
2019-06-07T10:28:26.802Z,2.02
2019-06-07T10:31:19.181Z,2.05
2019-06-07T10:33:48.514Z,1.87
2019-06-07T10:36:17.810Z,2.62
2019-06-07T10:38:47.195Z,2.70
2019-06-07T10:41:28.317Z,5.58
2019-06-07T10:43:57.464Z,1.57
2019-06-07T10:46:27.083Z,3.25
2019-06-07T10:48:56.212Z,2.20
2019-06-07T10:51:34.370Z,3.12
2019-06-07T10:54:10.946Z,2.20
2019-06-07T10:56:34.557Z,3.55
2019-06-07T10:59:05.092Z,3.83
2019-06-07T11:01:43.547Z,2.58
2019-06-07T11:04:13.838Z,3.05
2019-06-07T11:06:42.977Z,2.00
2019-06-07T11:09:12.086Z,2.37
2019-06-07T11:11:50.045Z,2.12
2019-06-07T11:14:19.342Z,2.17
2019-06-07T11:16:48.398Z,2.70
2019-06-07T11:19:19.627Z,2.27
2019-06-07T11:21:57.623Z,3.10
2019-06-07T11:24:26.845Z,2.05
2019-06-07T11:26:55.896Z,2.08
2019-06-07T11:29:26.411Z,2.52
2019-06-07T11:32:06.343Z,2.22
2019-06-07T11:34:35.466Z,5.40
2019-06-07T11:37:09.474Z,4.37
2019-06-07T11:39:39.147Z,3.45
2019-06-07T11:42:20.054Z,2.50
2019-06-07T11:44:56.944Z,3.65
2019-06-07T11:47:21.974Z,3.50
2019-06-07T11:49:50.934Z,3.10
2019-06-07T11:52:29.078Z,2.40
2019-06-07T11:54:58.073Z,2.20
2019-06-07T11:57:32.629Z,2.42
2019-06-07T12:00:01.913Z,3.15
2019-06-07T12:02:42.262Z,3.20
2019-06-07T12:05:16.177Z,2.85
2019-06-07T12:07:42.076Z,2.52
2019-06-07T12:10:15.589Z,2.30
2019-06-07T12:12:54.888Z,2.50
2019-06-07T12:15:24.078Z,2.62
2019-06-07T12:17:56.179Z,2.40
2019-06-07T12:20:28.457Z,4.78
2019-06-07T12:23:07.168Z,3.62
2019-06-07T12:25:36.260Z,2.98
2019-06-07T12:28:08.993Z,2.80
2019-06-07T12:30:38.136Z,4.78
2019-06-07T12:33:17.761Z,3.20
2019-06-07T12:35:49.079Z,2.60
2019-06-07T12:38:19.369Z,2.72
2019-06-07T12:40:57.164Z,2.50
2019-06-07T12:43:29.209Z,2.40
2019-06-07T12:45:58.454Z,3.58
2019-06-07T12:48:27.691Z,4.80
2019-06-07T12:50:56.832Z,3.05
2019-06-07T12:53:34.922Z,2.92
2019-06-07T12:56:03.954Z,2.30
2019-06-07T12:58:39.366Z,3.12
2019-06-07T13:01:07.037Z,11.18
2019-06-07T13:03:45.239Z,3.55
2019-06-07T13:06:15.399Z,3.92
2019-06-07T13:08:44.806Z,4.10
2019-06-07T13:11:17.603Z,4.90
2019-06-07T13:13:54.001Z,4.35
2019-06-07T13:16:24.214Z,4.50
2019-06-07T13:18:53.389Z,4.12
2019-06-07T13:21:22.453Z,3.17
2019-06-07T13:24:00.631Z,3.33
2019-06-07T13:26:29.702Z,4.92
2019-06-07T13:28:58.919Z,3.52
2019-06-07T13:31:27.901Z,4.45
2019-06-07T13:34:06.259Z,3.52
2019-06-07T13:36:35.329Z,4.90
2019-06-07T13:39:08.590Z,2.75
2019-06-07T13:41:42.875Z,3.02
2019-06-07T13:44:21.170Z,3.45
2019-06-07T13:46:50.149Z,2.60
2019-06-07T13:49:19.484Z,4.90
2019-06-07T13:51:50.350Z,4.37
2019-06-07T13:57:33.397Z,2.77
2019-06-07T14:00:10.433Z,3.87
2019-06-07T14:02:35.030Z,6.22
2019-06-07T14:05:13.294Z,3.12
2019-06-07T14:07:42.559Z,3.85
2019-06-07T14:10:11.985Z,3.30
2019-06-07T14:12:42.643Z,3.77
2019-06-07T14:15:22.329Z,5.78
2019-06-07T14:17:51.567Z,4.17
2019-06-07T14:20:25.834Z,2.72
2019-06-07T14:22:54.316Z,7.30
2019-06-07T14:25:32.256Z,2.60
2019-06-07T14:28:01.169Z,4.17
2019-06-07T14:30:30.636Z,3.72
2019-06-07T14:33:00.138Z,3.02
2019-06-07T14:35:38.302Z,3.55
2019-06-07T14:38:07.430Z,2.55
2019-06-07T14:40:36.575Z,3.37
2019-06-07T14:43:05.648Z,3.27
2019-06-07T14:45:43.855Z,2.67
2019-06-07T14:48:12.984Z,3.83
2019-06-07T14:50:44.888Z,3.52
2019-06-07T14:53:18.764Z,2.95
2019-06-07T14:55:55.308Z,3.33
2019-06-07T14:58:24.979Z,3.92
2019-06-07T15:00:54.745Z,2.87
2019-06-07T15:03:23.894Z,5.10
2019-06-07T15:06:02.411Z,3.08
2019-06-07T15:08:32.896Z,2.60
2019-06-07T15:11:02.826Z,2.55
2019-06-07T15:13:35.768Z,2.92
2019-06-07T15:16:08.238Z,2.70
2019-06-07T15:18:39.939Z,2.75
2019-06-07T15:21:10.056Z,2.40
2019-06-07T15:23:39.387Z,2.60
2019-06-07T15:26:21.670Z,3.30
2019-06-07T15:28:50.653Z,2.85
2019-06-07T15:31:20.006Z,3.05
2019-06-07T15:33:49.393Z,4.22
2019-06-07T15:37:21.303Z,2.52
2019-06-07T15:39:50.545Z,3.87
2019-06-07T15:42:19.882Z,5.20
2019-06-07T15:45:03.643Z,3.02
2019-06-07T15:47:36.017Z,3.35
2019-06-07T15:50:06.088Z,2.60
2019-06-07T15:52:35.505Z,3.25
2019-06-07T15:55:08.965Z,4.45
2019-06-07T15:57:39.685Z,3.67
2019-06-07T16:00:11.825Z,3.10
2019-06-07T16:02:43.400Z,4.20
2019-06-07T16:05:21.821Z,2.85
2019-06-07T16:07:50.868Z,7.80
2019-06-07T16:10:21.620Z,3.58
2019-06-07T16:13:00.190Z,4.35
2019-06-07T16:15:30.580Z,2.75
2019-06-07T16:17:59.677Z,3.65
2019-06-07T16:20:28.690Z,2.75
2019-06-07T16:22:57.981Z,3.00
2019-06-07T16:25:36.001Z,5.10
2019-06-07T16:28:05.345Z,3.05
2019-06-07T16:30:38.409Z,6.25
2019-06-07T16:33:11.262Z,4.62
2019-06-07T16:36:08.899Z,3.17
2019-06-07T16:38:38.098Z,4.53
2019-06-07T16:41:07.185Z,3.02
2019-06-07T16:43:48.988Z,4.95
2019-06-07T16:46:26.670Z,3.65
2019-06-07T16:48:55.999Z,3.02
2019-06-07T16:51:26.057Z,3.72
2019-06-07T16:53:55.368Z,5.37
2019-06-07T16:56:37.490Z,2.90
2019-06-07T16:59:06.960Z,4.42
2019-06-07T17:01:36.986Z,6.67
2019-06-07T17:04:29.934Z,3.45
2019-06-07T17:07:01.564Z,3.58
2019-06-07T17:09:30.798Z,4.37
2019-06-07T17:12:05.871Z,4.42
2019-06-07T17:14:35.090Z,3.63
2019-06-07T17:17:08.765Z,3.35
2019-06-07T17:19:58.388Z,4.35
2019-06-07T17:22:29.149Z,3.42
2019-06-07T17:24:58.191Z,5.58
2019-06-07T17:27:37.240Z,4.58
2019-06-07T17:30:07.624Z,4.72
2019-06-07T17:32:50.587Z,3.62
2019-06-07T17:35:12.414Z,4.62
2019-06-07T17:37:43.500Z,3.42
2019-06-07T17:40:12.952Z,3.77
2019-06-07T17:42:42.747Z,15.05
2019-06-07T17:45:14.104Z,3.17
2019-06-07T17:47:52.435Z,4.85
2019-06-07T17:50:22.821Z,4.15
2019-06-07T17:52:52.171Z,3.90
2019-06-07T17:55:21.563Z,4.33
2019-06-07T17:57:59.680Z,3.90
2019-06-07T18:00:51.159Z,4.70
2019-06-07T18:03:20.950Z,4.12
2019-06-07T18:06:03.547Z,3.90
2019-06-07T18:08:32.885Z,4.22
2019-06-07T18:11:01.875Z,3.37
2019-06-07T18:13:31.053Z,5.83
2019-06-07T18:16:13.288Z,3.83
2019-06-07T18:18:42.354Z,3.60
2019-06-07T18:21:12.687Z,3.98
2019-06-07T18:23:41.662Z,5.45
2019-06-07T18:26:20.883Z,5.62
2019-06-07T18:28:50.587Z,4.73
2019-06-07T18:31:19.686Z,5.43
2019-06-07T18:33:50.888Z,4.12
2019-06-07T18:36:28.973Z,5.13
2019-06-07T18:38:57.880Z,4.03
2019-06-07T18:41:27.066Z,3.63
2019-06-07T18:43:56.040Z,4.15
2019-06-07T18:46:34.101Z,3.80
2019-06-07T18:49:18.833Z,5.40
2019-06-07T18:52:28.067Z,6.73
2019-06-07T18:55:08.329Z,4.37
2019-06-07T18:57:46.338Z,5.37
2019-06-07T19:00:17.716Z,7.33
2019-06-07T19:02:47.757Z,5.70
2019-06-07T19:05:17.843Z,3.90
2019-06-07T19:07:59.868Z,4.93
2019-06-07T19:10:48.769Z,3.97
2019-06-07T19:13:20.630Z,4.07
2019-06-07T19:15:49.759Z,7.27
2019-06-07T19:18:27.984Z,3.90
2019-06-07T19:20:58.518Z,4.10
2019-06-07T19:23:29.547Z,6.40
2019-06-07T19:26:21.597Z,3.73
2019-06-07T19:29:00.932Z,4.57
2019-06-07T19:31:30.395Z,4.17
2019-06-07T19:33:59.846Z,4.03
2019-06-07T19:36:29.203Z,5.07
2019-06-07T19:38:58.380Z,7.30
2019-06-07T19:41:27.250Z,4.00
2019-06-07T19:43:58.239Z,4.20
2019-06-07T19:46:27.401Z,4.97
2019-06-07T19:49:05.551Z,4.70
2019-06-07T19:51:35.004Z,4.67
2019-06-07T19:54:07.140Z,10.93
2019-06-07T19:56:36.112Z,7.23
2019-06-07T19:59:14.679Z,11.10
2019-06-07T20:01:43.623Z,8.00
2019-06-07T20:04:15.035Z,7.20
2019-06-07T20:06:48.634Z,8.67
2019-06-07T20:09:31.071Z,7.47
2019-06-07T20:11:58.759Z,12.63
2019-06-07T20:14:27.964Z,6.77
2019-06-07T20:16:57.168Z,10.97
2019-06-07T20:19:36.622Z,8.00
2019-06-07T20:22:05.655Z,5.03
2019-06-07T20:24:38.216Z,5.73
2019-06-07T20:27:10.225Z,6.53
2019-06-07T20:29:54.513Z,4.73
2019-06-07T20:32:23.435Z,3.70
2019-06-07T20:34:52.449Z,3.03
2019-06-07T20:37:36.703Z,5.10
2019-06-07T20:40:19.563Z,4.70
2019-06-07T20:42:37.202Z,5.13
2019-06-07T20:45:08.145Z,7.47
2019-06-07T20:47:46.725Z,2.10
2019-06-07T20:50:16.160Z,4.17
2019-06-07T20:52:45.200Z,2.30
2019-06-07T20:55:15.348Z,2.63
2019-06-07T20:57:53.614Z,2.27
2019-06-07T21:00:22.853Z,3.67
2019-06-07T21:02:51.776Z,2.97
2019-06-07T21:05:20.662Z,1.10
2019-06-07T21:07:59.314Z,2.10
2019-06-07T21:10:28.632Z,2.80
2019-06-07T21:13:01.624Z,1.13
2019-06-07T21:15:31.163Z,6.93
2019-06-07T21:18:19.357Z,3.47
2019-06-07T21:20:44.029Z,4.30
2019-06-07T21:23:13.054Z,2.30
2019-06-07T21:25:42.283Z,2.47
2019-06-07T21:28:21.107Z,2.80
2019-06-07T21:30:50.131Z,5.17
2019-06-07T21:33:20.233Z,2.40
2019-06-07T21:35:49.449Z,2.60
2019-06-07T21:38:30.054Z,2.63
2019-06-07T21:40:59.379Z,2.90
2019-06-07T21:43:28.366Z,2.60
2019-06-07T21:46:05.538Z,2.10
2019-06-07T21:48:39.445Z,1.70
2019-06-07T21:51:08.623Z,4.00
2019-06-07T21:53:37.777Z,1.67
2019-06-07T21:56:07.084Z,2.20
2019-06-07T21:58:36.157Z,1.67
2019-06-07T22:01:19.959Z,2.73
2019-06-07T22:03:49.129Z,1.87
2019-06-07T22:06:18.273Z,1.83
2019-06-07T22:08:59.407Z,1.20
2019-06-07T22:11:28.444Z,2.10
2019-06-07T22:13:57.432Z,1.33
2019-06-07T22:16:29.451Z,2.43
2019-06-07T22:19:06.570Z,2.37
2019-06-07T22:21:35.637Z,2.40
2019-06-07T22:24:04.830Z,1.87
2019-06-07T22:26:35.269Z,3.83
2019-06-07T22:29:14.432Z,1.20
2019-06-07T22:31:44.127Z,1.37
2019-06-07T22:34:13.037Z,3.53
2019-06-07T22:36:42.050Z,1.30
2019-06-07T22:39:20.269Z,1.50
2019-06-07T22:41:52.049Z,3.80
2019-06-07T22:44:20.929Z,2.07
2019-06-07T22:46:52.209Z,1.20
2019-06-07T22:49:30.217Z,1.77
2019-06-07T22:52:08.694Z,0.73
2019-06-07T22:54:30.324Z,2.83
2019-06-07T22:57:04.120Z,1.33
2019-06-07T22:59:42.153Z,2.60
2019-06-07T23:02:12.535Z,1.20
2019-06-07T23:04:41.759Z,0.90
2019-06-07T23:07:13.283Z,3.40
2019-06-07T23:09:51.519Z,1.70
2019-06-07T23:12:20.482Z,2.67
2019-06-07T23:14:49.498Z,1.00
2019-06-07T23:17:21.390Z,3.37
2019-06-07T23:19:59.704Z,1.83
2019-06-07T23:22:28.698Z,2.27
2019-06-07T23:24:57.754Z,1.50
2019-06-07T23:27:26.801Z,1.40
2019-06-07T23:30:08.656Z,1.50
2019-06-07T23:32:35.597Z,2.10
2019-06-07T23:35:04.877Z,3.00
2019-06-07T23:37:33.962Z,1.97
2019-06-07T23:40:13.529Z,0.93
2019-06-07T23:42:43.788Z,1.07
2019-06-07T23:45:13.823Z,5.63
2019-06-07T23:47:43.005Z,1.23
2019-06-07T23:50:21.899Z,4.30
2019-06-07T23:52:51.072Z,1.10
2019-06-07T23:55:20.228Z,2.63
2019-06-07T23:57:52.061Z,1.37
